WetterOnline ( http://www.wetteronline.at )

Wetter aktuell Helgoland

Aktuelles Wetter: Helgoland/Düne (8m)

6-stündlich | Neueste Meldungen
Ortszeit Temperatur Wetter
Mi, 22.08. 2:00 19.8° C fast wolkenlos
Di, 21.08. 20:00 20.1° C wolkenlos
Di, 21.08. 14:00 19.5° C bewölkt
Di, 21.08. 8:00 17.7° C wolkenlos
Di, 21.08. 2:00 17.6° C bedeckt
Mo, 20.08. 20:00 17.8° C bedeckt
Mo, 20.08. 14:00 19.7° C wolkenlos
Mo, 20.08. 8:00 18.3° C bewölkt
Ortszeit Temperatur Wetter
Mi, 22.08. 7:10 19.7° C bedeckt
Mi, 22.08. 7:00 19.7° C bedeckt
Mi, 22.08. 6:50 19.7° C bedeckt
Mi, 22.08. 6:40 19.7° C bedeckt
Mi, 22.08. 6:30 19.7° C bedeckt
Mi, 22.08. 6:20 19.7° C bedeckt
Mi, 22.08. 6:00 19.6° C bedeckt
Mi, 22.08. 5:30 19.4° C bewölkt
Mi, 22.08. 5:00 19.4° C leicht bewölkt
Mi, 22.08. 4:30 19.7° C fast wolkenlos
Ortszeit Relative Feuchte Sichtweite
Mi, 22.08. 2:00 80% 50 km
Di, 21.08. 20:00 78% 50 km
Di, 21.08. 14:00 69% 50 km
Di, 21.08. 8:00 73% 65 km
Di, 21.08. 2:00 71% 55 km
Mo, 20.08. 20:00 66% 50 km
Mo, 20.08. 14:00 72% 60 km
Mo, 20.08. 8:00 92% 30 km
Ortszeit Relative Feuchte Sichtweite
Mi, 22.08. 7:10 77% -
Mi, 22.08. 7:00 78% 30 km
Mi, 22.08. 6:50 78% -
Mi, 22.08. 6:40 76% -
Mi, 22.08. 6:30 80% 35 km
Mi, 22.08. 6:20 80% -
Mi, 22.08. 6:00 80% 35 km
Mi, 22.08. 5:30 78% 40 km
Mi, 22.08. 5:00 76% 40 km
Mi, 22.08. 4:30 74% 40 km
Ortszeit Niederschlagsmenge Niederschlagsart
Mi, 22.08. 2:00 0.0 l/m2 in 6 Std. -
Di, 21.08. 20:00 0.0 l/m2 in 12 Std. -
Di, 21.08. 14:00 0.0 l/m2 in 6 Std. -
Di, 21.08. 8:00 0.0 l/m2 in 12 Std. -
Di, 21.08. 2:00 0.0 l/m2 in 6 Std. -
Mo, 20.08. 20:00 0.1 l/m2 in 12 Std. -
Mo, 20.08. 14:00 0.1 l/m2 in 6 Std. Regen
Mo, 20.08. 8:00 1 l/m2 in 12 Std. Regen
Ortszeit Niederschlagsmenge Niederschlagsart
Mi, 22.08. 7:10 keine Meldung -
Mi, 22.08. 7:00 0.0 l/m2 in 1 Std. -
Mi, 22.08. 6:50 keine Meldung -
Mi, 22.08. 6:40 keine Meldung -
Mi, 22.08. 6:30 0.0 l/m2 in 1 Std. -
Mi, 22.08. 6:20 keine Meldung -
Mi, 22.08. 6:00 0.0 l/m2 in 1 Std. -
Mi, 22.08. 5:30 0.0 l/m2 in 1 Std. -
Mi, 22.08. 5:00 0.0 l/m2 in 1 Std. -
Mi, 22.08. 4:30 0.0 l/m2 in 1 Std. -
Ortszeit Stärke Spitze Richtung
km/h Bft. km/h Grad Sektor
Mi, 22.08. 2:00 29 5 36 150° SO
Di, 21.08. 20:00 18 3 22 120° SO
Di, 21.08. 14:00 14 3 18 160° S
Di, 21.08. 8:00 7 2 14 280° W
Di, 21.08. 2:00 9 2 26 300° NW
Mo, 20.08. 20:00 18 3 36 330° NW
Mo, 20.08. 14:00 22 4 36 300° NW
Mo, 20.08. 8:00 22 4 43 290° W
Ortszeit Stärke Spitze Richtung
km/h Bft. km/h Grad Sektor
Mi, 22.08. 7:10 24 4 - 170° S
Mi, 22.08. 7:00 24 4 30 180° S
Mi, 22.08. 6:50 24 4 - 180° S
Mi, 22.08. 6:40 22 4 - 170° S
Mi, 22.08. 6:30 22 4 25 170° S
Mi, 22.08. 6:20 22 4 - 170° S
Mi, 22.08. 6:00 22 4 32 170° S
Mi, 22.08. 5:30 24 4 31 170° S
Mi, 22.08. 5:00 28 4 35 170° S
Mi, 22.08. 4:30 30 5 35 170° S
Ortszeit Untergrenze Bedeckung Gattung
total tief tief mittel hoch
Mi, 22.08. 2:00 2100 m 1/8 1/8 - - -
Di, 21.08. 20:00 - 0/8 0/8 - - -
Di, 21.08. 14:00 1290 m 7/8 7/8 - - -
Di, 21.08. 8:00 - 0/8 0/8 - - -
Di, 21.08. 2:00 1320 m 8/8 8/8 - - -
Mo, 20.08. 20:00 1470 m 8/8 8/8 - - -
Mo, 20.08. 14:00 - 0/8 0/8 - - -
Mo, 20.08. 8:00 240 m 7/8 7/8 - - -
Ortszeit Bedeckungsgrad in Achtel und Wolkenuntergrenze
Mi, 22.08. 7:10 8(1800m)
Mi, 22.08. 7:00 8(1800m)
Mi, 22.08. 6:50 8(1800m)
Mi, 22.08. 6:40 8(1800m)
Mi, 22.08. 6:30 8(1800m)
Mi, 22.08. 6:20 8(1800m)
Mi, 22.08. 6:00 8(1800m)
Mi, 22.08. 5:30 7(2100m)
Mi, 22.08. 5:00 2(2100m)
Mi, 22.08. 4:30 1(2100m)
Ortszeit Luftdruck NN (hPa) Tendenz (hPa in 3 Std.)
Mi, 22.08. 2:00 1019 - 0,2
Di, 21.08. 20:00 1020 - 1,4
Di, 21.08. 14:00 1022 - 0,2
Di, 21.08. 8:00 1021 + 0,5
Di, 21.08. 2:00 1021 + 0,3
Mo, 20.08. 20:00 1020 + 0,5
Mo, 20.08. 14:00 1018 + 1,1
Mo, 20.08. 8:00 1015 + 0,8
Ortszeit Luftdruck NN (hPa) Tendenz (hPa in 3 Std.)
Mi, 22.08. 7:10 1018 keine Meldung
Mi, 22.08. 7:00 1018 - 0,7
Mi, 22.08. 6:50 1018 keine Meldung
Mi, 22.08. 6:40 1018 keine Meldung
Mi, 22.08. 6:30 1018 - 1,1
Mi, 22.08. 6:20 1018 keine Meldung
Mi, 22.08. 6:00 1018 - 1,1
Mi, 22.08. 5:30 1018 - 1,1
Mi, 22.08. 5:00 1018 - 1,2
Mi, 22.08. 4:30 1018 - 0,9
Ortszeit Schneehöhe (cm)
Mi, 22.08. 2:00 -
Di, 21.08. 20:00 -
Di, 21.08. 14:00 -
Di, 21.08. 8:00 -
Di, 21.08. 2:00 -
Mo, 20.08. 20:00 -
Mo, 20.08. 14:00 -
Mo, 20.08. 8:00 -
Ortszeit Schneehöhe (cm)
Mi, 22.08. 7:10 -
Mi, 22.08. 7:00 -
Mi, 22.08. 6:50 -
Mi, 22.08. 6:40 -
Mi, 22.08. 6:30 -
Mi, 22.08. 6:20 -
Mi, 22.08. 6:00 -
Mi, 22.08. 5:30 -
Mi, 22.08. 5:00 -
Mi, 22.08. 4:30 -
Link zu dieser Seite / Seite empfehlen

Das Wetter in ...